Capitol Logistics 428




KIAD
Washington Dulles International Airport
Dulles, Virginia
KPWM
Portland International Jetport
Portland, Maine

Activity Log

Date Flight Route Aircraft Duration
01/20/2021 CPX428 JCOBY3 SWANN BROSS J42 RBV LGA BDR SCOGS3 B738 1h 23m
08/08/2019 CPX428 JCOBY3 SWANN BROSS J42 RBV LGA BDR SCOGS3 B752 1h 23m
12/03/2018 CPX528 JCOBY3 SWANN BROSS J42 RBV LGA BDR SCOGS3 B752 1h 14m
03/28/2018 CPX528 JCOBY3 SWANN BROSS J42 RBV LGA BDR SCOGS3 B752 1h 11m

Route Details

Aircraft Information
Primary: Boeing 737-800BCF
Backup: Not Available
Route Data
Distance: 429nm
Duration: 1h 35m
Recm'd Route: JCOBY3 SWANN BROSS J42 RBV LGA BDR SCOGS3
Origin Wx: KIAD 180252Z VRB04KT 10SM FEW120 BKN150 12/03 A2987 RMK AO2 SLP115 T01170033 51014
Dest. Wx: KPWM 180251Z 31006KT 10SM OVC050 06/02 A2976 RMK AO2 SLP077 T00560017 58002
Notes: LOBSTER KING